Time;durP1;ratioP1;P1;durP2;ratioP2;P2;SDS_P1;SDS_P2;PMS_P1;PMS_P2;Temp;Humidity;BMP_temperature;BMP_pressure;BME280_temperature;BME280_humidity;BME280_pressure;Samples;Min_cycle;Max_cycle;Signal;HPM_P1;HPM_P2
2022/04/02 00:00:17;;;;;;;8.20;3.63;;;0.00;99.90;;;;;;4913655;29;20047;-78
2022/04/02 00:02:43;;;;;;;6.30;3.10;;;0.00;99.90;;;;;;4933240;29;20166;-78
2022/04/02 00:05:15;;;;;;;9.37;3.17;;;0.50;99.90;;;;;;4915129;29;20062;-78
2022/04/02 00:07:40;;;;;;;7.78;3.63;;;0.00;99.90;;;;;;4947194;29;20648;-78
2022/04/02 00:10:13;;;;;;;9.75;3.50;;;0.00;99.90;;;;;;4915346;29;20054;-78
2022/04/02 00:12:45;;;;;;;6.22;3.00;;;0.70;99.90;;;;;;4947074;29;20099;-78
2022/04/02 00:15:11;;;;;;;9.55;3.38;;;-0.20;99.90;;;;;;4929453;29;20063;-78
2022/04/02 00:17:37;;;;;;;6.18;3.30;;;0.00;99.90;;;;;;4933094;29;20172;-78
2022/04/02 00:20:04;;;;;;;5.18;3.08;;;0.00;99.90;;;;;;4930063;29;20257;-78
2022/04/02 00:22:33;;;;;;;9.20;3.22;;;0.00;99.90;;;;;;4931077;29;20051;-78
2022/04/02 00:24:59;;;;;;;5.85;3.20;;;-0.10;99.90;;;;;;4915039;29;20039;-78
2022/04/02 00:27:25;;;;;;;6.32;3.15;;;-0.10;99.90;;;;;;4930408;29;20040;-78
2022/04/02 00:29:50;;;;;;;7.63;2.97;;;-0.10;99.90;;;;;;4924337;29;20478;-78
2022/04/02 00:32:16;;;;;;;9.93;3.35;;;-0.10;99.90;;;;;;4933235;29;20094;-78
2022/04/02 00:34:42;;;;;;;6.45;2.80;;;-0.10;99.90;;;;;;4933256;29;20047;-78
2022/04/02 00:37:08;;;;;;;6.93;2.85;;;-0.10;99.90;;;;;;4950990;29;20082;-78
2022/04/02 00:39:33;;;;;;;6.00;3.25;;;-0.10;99.90;;;;;;4965614;28;20484;-78
2022/04/02 00:41:59;;;;;;;9.55;2.85;;;-0.10;99.90;;;;;;4933375;29;20117;-78
2022/04/02 00:44:28;;;;;;;8.98;2.80;;;-0.10;99.90;;;;;;4950285;29;20046;-78
2022/04/02 00:46:55;;;;;;;6.78;2.72;;;-0.10;99.90;;;;;;4950235;29;20403;-78
2022/04/02 00:49:20;;;;;;;5.15;3.10;;;0.00;99.90;;;;;;4964142;28;20047;-78
2022/04/02 00:51:49;;;;;;;8.75;3.10;;;0.00;99.90;;;;;;4934299;29;20047;-79
2022/04/02 00:54:17;;;;;;;5.57;3.00;;;-0.10;99.90;;;;;;4965545;28;20047;-79
2022/04/02 00:56:43;;;;;;;5.13;2.80;;;-0.10;99.90;;;;;;4950544;29;20047;-79
2022/04/02 00:59:13;;;;;;;8.10;3.35;;;-0.10;99.90;;;;;;4932417;29;20061;-79
2022/04/02 01:01:44;;;;;;;7.00;3.08;;;-0.10;99.90;;;;;;4933893;29;20422;-79
2022/04/02 01:04:10;;;;;;;10.82;2.50;;;-0.10;99.90;;;;;;4933239;29;20047;-78
2022/04/02 01:06:36;;;;;;;6.10;3.28;;;-0.20;99.90;;;;;;4965400;28;20434;-79
2022/04/02 01:09:02;;;;;;;6.28;3.00;;;-0.20;99.90;;;;;;4931460;29;20483;-78
2022/04/02 01:11:43;;;;;;;9.02;2.80;;;-0.20;99.90;;;;;;4948813;28;20059;-78
2022/04/02 01:14:10;;;;;;;6.72;3.38;;;-0.20;99.90;;;;;;4946887;29;20039;-79
2022/04/02 01:16:36;;;;;;;6.47;3.05;;;-0.20;99.90;;;;;;4913654;29;20060;-79
2022/04/02 01:19:03;;;;;;;11.68;2.90;;;1.30;99.90;;;;;;4929978;29;20047;-78
2022/04/02 01:21:29;;;;;;;9.30;3.10;;;-0.20;99.90;;;;;;4932002;29;20054;-78
2022/04/02 01:23:56;;;;;;;7.88;2.75;;;-0.20;99.90;;;;;;4931354;29;20079;-78
2022/04/02 01:26:22;;;;;;;7.50;2.47;;;-0.20;99.90;;;;;;4948805;29;20388;-78
2022/04/02 01:28:54;;;;;;;7.25;2.45;;;-0.30;99.90;;;;;;4931996;29;20047;-78
2022/04/02 01:31:22;;;;;;;7.13;2.65;;;-0.30;99.90;;;;;;4963086;28;20071;-78
2022/04/02 01:33:49;;;;;;;7.32;3.10;;;-0.30;99.90;;;;;;4965174;28;20563;-78
2022/04/02 01:36:16;;;;;;;6.22;3.20;;;0.40;99.90;;;;;;4931808;29;20078;-78
2022/04/02 01:38:42;;;;;;;12.27;3.00;;;-0.20;99.90;;;;;;4932601;29;20043;-78
2022/04/02 01:41:08;;;;;;;8.25;3.40;;;-0.30;99.90;;;;;;4932689;29;20399;-78
2022/04/02 01:43:36;;;;;;;5.30;2.65;;;-0.20;99.90;;;;;;4965586;28;20155;-78
2022/04/02 01:46:04;;;;;;;8.32;2.85;;;-0.30;99.90;;;;;;4931549;29;20138;-78
2022/04/02 01:48:30;;;;;;;9.57;3.35;;;-0.30;99.90;;;;;;4914290;29;20063;-78
2022/04/02 01:50:56;;;;;;;5.82;2.85;;;-0.30;99.90;;;;;;4932722;29;20054;-78
2022/04/02 01:53:24;;;;;;;6.93;2.67;;;-0.40;99.90;;;;;;4949062;29;20051;-78
2022/04/02 01:55:50;;;;;;;9.07;2.65;;;-0.40;99.90;;;;;;4932835;29;20062;-78
2022/04/02 01:58:16;;;;;;;6.43;2.72;;;-0.40;99.90;;;;;;4931142;29;20061;-78
2022/04/02 02:00:43;;;;;;;5.28;2.30;;;-0.40;99.90;;;;;;4949532;29;20047;-78
2022/04/02 02:03:12;;;;;;;6.90;2.88;;;-0.50;99.90;;;;;;4932631;29;20047;-78
2022/04/02 02:05:38;;;;;;;8.18;2.53;;;-0.50;99.90;;;;;;4963801;28;20039;-79
2022/04/02 02:08:04;;;;;;;11.50;2.70;;;0.00;99.90;;;;;;4932697;29;20051;-79
2022/04/02 02:10:31;;;;;;;8.48;2.55;;;-0.50;99.90;;;;;;4916201;29;20094;-78
2022/04/02 02:12:56;;;;;;;12.43;3.13;;;-0.50;99.90;;;;;;4932213;29;20051;-78
2022/04/02 02:15:22;;;;;;;8.65;3.05;;;-0.50;99.90;;;;;;4931009;29;20085;-78
2022/04/02 02:17:49;;;;;;;8.15;2.90;;;-0.50;99.90;;;;;;4932801;29;20466;-78
2022/04/02 02:20:16;;;;;;;8.18;2.42;;;-0.60;99.90;;;;;;4931461;29;20047;-78
2022/04/02 02:22:43;;;;;;;7.38;2.58;;;-0.60;99.90;;;;;;4932489;29;20126;-78
2022/04/02 02:25:12;;;;;;;6.63;2.60;;;-0.60;99.90;;;;;;4931784;29;20138;-78
2022/04/02 02:27:39;;;;;;;7.47;2.40;;;-0.60;99.90;;;;;;4931727;29;20279;-78
2022/04/02 02:30:06;;;;;;;7.05;2.15;;;-0.60;99.90;;;;;;4949038;29;20052;-78
2022/04/02 02:32:36;;;;;;;10.40;2.53;;;-0.60;99.90;;;;;;4923727;29;20043;-78
2022/04/02 02:37:48;;;;;;;6.90;2.22;;;-0.70;99.90;;;;;;4945254;28;20054;-78
2022/04/02 02:40:14;;;;;;;12.23;2.70;;;-0.70;99.90;;;;;;4911890;29;20048;-78
2022/04/02 02:42:41;;;;;;;10.98;2.38;;;-0.70;99.90;;;;;;4913706;29;20206;-78
2022/04/02 02:45:07;;;;;;;8.60;2.47;;;-0.70;99.90;;;;;;4928240;29;20047;-78
2022/04/02 02:47:33;;;;;;;8.52;2.60;;;-0.70;99.90;;;;;;4918483;29;20113;-78
2022/04/02 02:50:00;;;;;;;10.15;2.55;;;-0.60;99.90;;;;;;4936108;29;20495;-79
2022/04/02 02:52:27;;;;;;;4.95;2.50;;;-0.70;99.90;;;;;;4968220;28;20062;-78
2022/04/02 02:54:53;;;;;;;9.98;2.50;;;-0.20;99.90;;;;;;4951111;29;20058;-78
2022/04/02 02:57:19;;;;;;;4.57;2.30;;;-0.50;99.90;;;;;;4935278;29;20051;-78
2022/04/02 02:59:44;;;;;;;7.72;2.58;;;-0.60;99.90;;;;;;4952609;29;20105;-78
2022/04/02 03:02:11;;;;;;;6.10;2.35;;;-0.60;99.90;;;;;;4934327;29;20126;-79
2022/04/02 03:04:37;;;;;;;4.40;2.22;;;-0.60;99.90;;;;;;4935642;29;20055;-78
2022/04/02 03:07:04;;;;;;;10.40;2.50;;;-0.60;99.90;;;;;;4935515;29;20462;-78
2022/04/02 03:09:29;;;;;;;9.88;2.15;;;-0.60;99.90;;;;;;4934326;29;20558;-78
2022/04/02 03:11:56;;;;;;;6.25;2.28;;;-0.60;99.90;;;;;;4935953;29;20094;-79
2022/04/02 03:14:22;;;;;;;5.70;2.20;;;-0.60;99.90;;;;;;4930300;29;20047;-78
2022/04/02 03:16:47;;;;;;;12.95;2.47;;;-0.40;99.90;;;;;;4915946;29;20146;-78
2022/04/02 03:19:13;;;;;;;11.85;1.90;;;-0.60;99.90;;;;;;4916393;29;20616;-78
2022/04/02 03:21:39;;;;;;;7.32;2.20;;;-0.70;99.90;;;;;;4932467;29;20440;-78
2022/04/02 03:24:05;;;;;;;9.45;2.53;;;-0.70;99.90;;;;;;4944980;29;20415;-78
2022/04/02 03:26:31;;;;;;;5.80;2.30;;;-0.70;99.90;;;;;;4935213;29;20081;-78
2022/04/02 03:28:57;;;;;;;8.50;2.50;;;-0.80;99.90;;;;;;4966633;28;20487;-78
2022/04/02 03:31:22;;;;;;;11.60;2.38;;;-0.80;99.90;;;;;;4950484;29;20054;-78
2022/04/02 03:33:49;;;;;;;6.35;2.13;;;-0.90;99.90;;;;;;4952052;29;20055;-79
2022/04/02 03:36:14;;;;;;;9.80;2.30;;;-0.90;99.90;;;;;;4952012;29;20456;-78
2022/04/02 03:38:41;;;;;;;8.88;2.33;;;-0.60;99.90;;;;;;4918971;29;20054;-79
2022/04/02 03:41:07;;;;;;;6.65;2.38;;;-0.20;99.90;;;;;;4967086;28;20623;-78
2022/04/02 03:43:34;;;;;;;6.63;2.28;;;-0.80;99.90;;;;;;4934461;29;20043;-78
2022/04/02 03:48:45;;;;;;;6.47;2.33;;;-0.80;99.90;;;;;;4952533;29;20051;-78
2022/04/02 03:51:11;;;;;;;7.85;2.30;;;0.20;99.90;;;;;;4965802;28;20058;-78
2022/04/02 03:53:37;;;;;;;5.38;2.00;;;-0.80;99.90;;;;;;4950715;29;20133;-79
2022/04/02 03:56:03;;;;;;;4.32;2.13;;;-0.90;99.90;;;;;;4952233;29;20450;-78
2022/04/02 03:58:31;;;;;;;4.40;2.03;;;-0.90;99.90;;;;;;4965265;28;20051;-78
2022/04/02 04:00:57;;;;;;;5.68;1.95;;;-0.90;99.90;;;;;;4951743;29;20594;-78
2022/04/02 04:03:23;;;;;;;10.13;1.98;;;-0.90;99.90;;;;;;4964196;28;20047;-78
2022/04/02 04:05:49;;;;;;;6.03;2.00;;;-1.00;99.90;;;;;;4946642;29;20062;-78
2022/04/02 04:08:14;;;;;;;5.13;2.05;;;-1.00;99.90;;;;;;4931505;29;20065;-78
2022/04/02 04:10:41;;;;;;;6.10;1.80;;;-1.10;99.90;;;;;;4946827;29;20063;-78
2022/04/02 04:13:07;;;;;;;6.60;1.83;;;-1.10;99.90;;;;;;4946561;29;20048;-78
2022/04/02 04:15:33;;;;;;;7.47;2.08;;;-1.10;99.90;;;;;;4930183;29;20404;-78
2022/04/02 04:17:58;;;;;;;11.40;2.05;;;-1.00;99.90;;;;;;4947155;29;20056;-78
2022/04/02 04:20:25;;;;;;;9.05;2.25;;;-1.00;99.90;;;;;;4946242;29;20055;-78
2022/04/02 04:22:52;;;;;;;4.70;1.75;;;-1.00;99.90;;;;;;4932419;29;20055;-78
2022/04/02 04:25:17;;;;;;;5.72;1.90;;;-1.00;99.90;;;;;;4931990;29;20055;-78
2022/04/02 04:27:43;;;;;;;7.40;2.20;;;-0.90;99.90;;;;;;4930318;29;20044;-78
2022/04/02 04:30:10;;;;;;;4.10;1.83;;;-0.90;99.90;;;;;;4931432;29;20062;-78
2022/04/02 04:32:35;;;;;;;10.75;2.15;;;-0.90;99.90;;;;;;4915312;29;20047;-78
2022/04/02 04:35:02;;;;;;;5.82;1.92;;;-0.90;99.90;;;;;;4930905;29;20055;-78
2022/04/02 04:37:28;;;;;;;9.75;1.70;;;-0.80;99.90;;;;;;4915094;29;20132;-77
2022/04/02 04:39:53;;;;;;;8.80;2.00;;;-0.70;99.90;;;;;;4914432;29;20141;-77
2022/04/02 04:42:21;;;;;;;6.80;1.85;;;-0.70;99.90;;;;;;4914783;29;20062;-77
2022/04/02 04:44:47;;;;;;;5.45;2.17;;;-0.60;99.90;;;;;;4930551;29;20527;-77
2022/04/02 04:47:12;;;;;;;5.35;1.80;;;-0.60;99.90;;;;;;4929559;29;20055;-77
2022/04/02 04:49:38;;;;;;;8.27;1.83;;;-0.40;99.90;;;;;;4914905;29;20047;-77
2022/04/02 04:52:04;;;;;;;4.78;2.00;;;-0.50;99.90;;;;;;4945926;29;20488;-77
2022/04/02 04:54:30;;;;;;;10.38;2.42;;;-0.50;99.90;;;;;;4929558;29;20056;-76
2022/04/02 04:56:55;;;;;;;8.40;2.72;;;-0.50;99.90;;;;;;4932145;29;20051;-77
2022/04/02 04:59:21;;;;;;;6.63;2.20;;;-0.50;99.90;;;;;;4913156;29;20062;-77
2022/04/02 05:01:48;;;;;;;12.30;2.40;;;-0.40;99.90;;;;;;4914475;29;20959;-77
2022/04/02 05:04:13;;;;;;;9.48;2.42;;;-0.40;99.90;;;;;;4913559;29;20565;-77
2022/04/02 05:06:40;;;;;;;6.05;2.17;;;-0.40;99.90;;;;;;4915184;29;20059;-77
2022/04/02 05:09:06;;;;;;;7.53;2.92;;;-0.30;99.90;;;;;;4913311;29;20123;-77
2022/04/02 05:11:32;;;;;;;7.18;2.60;;;0.00;99.90;;;;;;4913379;29;20547;-77
2022/04/02 05:14:08;;;;;;;8.88;2.65;;;-0.30;99.90;;;;;;4940922;29;20439;-77
2022/04/02 05:16:35;;;;;;;6.00;2.60;;;-0.30;99.90;;;;;;4924458;29;20051;-77
2022/04/02 05:19:00;;;;;;;7.97;2.42;;;-0.20;99.90;;;;;;4931501;29;20093;-77
2022/04/02 05:21:26;;;;;;;11.20;2.83;;;-0.10;99.90;;;;;;4948796;29;20082;-76
2022/04/02 05:23:52;;;;;;;5.70;2.50;;;-0.10;99.90;;;;;;4931310;29;20086;-77
2022/04/02 05:26:17;;;;;;;5.05;2.65;;;0.00;99.90;;;;;;4931934;29;20082;-77
2022/04/02 05:28:43;;;;;;;5.10;2.53;;;0.00;99.90;;;;;;4949492;29;20051;-77
2022/04/02 05:31:09;;;;;;;6.53;2.72;;;0.10;99.90;;;;;;4931027;29;20501;-77
2022/04/02 05:33:35;;;;;;;6.82;2.53;;;0.20;99.90;;;;;;4932185;29;20380;-77
2022/04/02 05:36:01;;;;;;;7.15;2.50;;;0.30;99.90;;;;;;4948459;29;20050;-77
2022/04/02 05:38:27;;;;;;;6.30;2.50;;;0.30;99.90;;;;;;4931013;29;20515;-77
2022/04/02 05:40:53;;;;;;;7.18;2.63;;;0.40;99.90;;;;;;4949340;29;20059;-77
2022/04/02 05:43:19;;;;;;;7.05;2.20;;;0.50;99.90;;;;;;4930820;29;20058;-77
2022/04/02 05:45:44;;;;;;;8.07;2.95;;;1.40;99.90;;;;;;4915144;29;20053;-77
2022/04/02 05:48:10;;;;;;;15.48;2.88;;;1.90;99.90;;;;;;4948833;29;20150;-77
2022/04/02 05:50:36;;;;;;;10.90;2.65;;;1.90;99.90;;;;;;4947827;29;20110;-77
2022/04/02 05:53:02;;;;;;;7.03;2.67;;;0.80;99.90;;;;;;4948816;29;20488;-77
2022/04/02 05:55:27;;;;;;;6.68;2.80;;;0.80;99.90;;;;;;4947464;29;20126;-77
2022/04/02 05:57:53;;;;;;;5.80;2.80;;;0.80;99.90;;;;;;4930748;29;20201;-77
2022/04/02 06:00:19;;;;;;;11.93;3.63;;;0.90;99.90;;;;;;4930849;29;20497;-76
2022/04/02 06:02:45;;;;;;;5.72;2.63;;;1.50;99.90;;;;;;4915951;29;20103;-77
2022/04/02 06:05:13;;;;;;;8.75;2.83;;;0.80;99.90;;;;;;4930053;29;20126;-77
2022/04/02 06:07:40;;;;;;;6.72;2.72;;;0.80;99.90;;;;;;4948760;29;20094;-77
2022/04/02 06:10:06;;;;;;;8.68;2.50;;;0.90;99.90;;;;;;4931378;29;20089;-77
2022/04/02 06:12:33;;;;;;;4.82;2.20;;;1.00;99.90;;;;;;4930938;29;20047;-77
2022/04/02 06:14:59;;;;;;;4.85;1.77;;;1.20;99.90;;;;;;4913898;29;20047;-77
2022/04/02 06:17:25;;;;;;;3.38;1.70;;;1.50;99.90;;;;;;4914292;29;20514;-79
2022/04/02 06:19:51;;;;;;;7.72;1.60;;;1.40;99.90;;;;;;4930002;29;20049;-77
2022/04/02 06:22:18;;;;;;;4.38;1.67;;;1.50;99.90;;;;;;4930319;29;20043;-77
2022/04/02 06:24:44;;;;;;;11.23;8.10;;;1.60;99.90;;;;;;4919370;29;20047;-77
2022/04/02 06:27:09;;;;;;;7.85;1.92;;;1.70;99.90;;;;;;4917328;29;20101;-77
2022/04/02 06:29:35;;;;;;;14.32;2.40;;;2.50;99.90;;;;;;4935574;29;20461;-78
2022/04/02 06:32:01;;;;;;;11.38;2.50;;;1.90;99.90;;;;;;4934904;29;20047;-78
2022/04/02 06:34:26;;;;;;;4.43;1.95;;;2.00;99.90;;;;;;4918606;29;20039;-77
2022/04/02 06:36:54;;;;;;;10.70;2.30;;;2.00;99.90;;;;;;4919746;29;20533;-78
2022/04/02 06:39:19;;;;;;;6.40;2.03;;;2.10;99.90;;;;;;4949964;29;20047;-78
2022/04/02 06:41:45;;;;;;;7.40;1.98;;;2.10;99.90;;;;;;4918223;29;20047;-78
2022/04/02 06:44:11;;;;;;;7.18;1.80;;;2.20;99.90;;;;;;4948839;29;20050;-79
2022/04/02 06:46:37;;;;;;;5.65;1.83;;;3.30;99.90;;;;;;4918226;29;20039;-77
2022/04/02 06:49:04;;;;;;;10.38;2.08;;;2.30;99.90;;;;;;4934363;29;20043;-80
2022/04/02 06:51:29;;;;;;;6.40;1.75;;;2.30;99.90;;;;;;4947169;29;20182;-78
2022/04/02 06:53:55;;;;;;;6.68;2.10;;;2.30;99.90;;;;;;4950455;29;20126;-78
2022/04/02 06:56:21;;;;;;;4.93;1.90;;;2.40;99.90;;;;;;4948227;28;20205;-77
2022/04/02 06:58:47;;;;;;;10.38;2.78;;;2.50;99.90;;;;;;4947315;29;20638;-78
2022/04/02 07:01:12;;;;;;;6.03;1.88;;;3.60;99.90;;;;;;4948399;29;20039;-77
2022/04/02 07:03:38;;;;;;;3.70;1.88;;;2.50;99.90;;;;;;4918792;29;20051;-78
2022/04/02 07:06:04;;;;;;;7.28;1.90;;;2.40;99.90;;;;;;4933745;29;20082;-78
2022/04/02 07:08:30;;;;;;;3.58;1.42;;;2.40;99.90;;;;;;4951899;29;20054;-78
2022/04/02 07:10:57;;;;;;;5.65;1.65;;;2.30;99.90;;;;;;4935456;29;20055;-78
2022/04/02 07:13:24;;;;;;;5.35;1.63;;;2.20;99.90;;;;;;4935510;29;20050;-78
2022/04/02 07:15:50;;;;;;;5.22;1.50;;;2.20;99.90;;;;;;4918728;29;20055;-78
2022/04/02 07:18:16;;;;;;;3.75;1.55;;;2.10;99.90;;;;;;4932207;29;20059;-78
2022/04/02 07:20:41;;;;;;;4.68;1.73;;;2.00;99.90;;;;;;4931897;29;20554;-78
2022/04/02 07:23:09;;;;;;;4.78;1.45;;;1.90;99.90;;;;;;4915967;29;20131;-78
2022/04/02 07:25:38;;;;;;;3.08;1.45;;;1.90;99.90;;;;;;4932486;29;20116;-78
2022/04/02 07:28:04;;;;;;;3.95;1.58;;;1.80;99.90;;;;;;4916527;29;20036;-78
2022/04/02 07:30:35;;;;;;;6.45;1.95;;;1.70;99.90;;;;;;4929940;29;20062;-78
2022/04/02 07:33:01;;;;;;;3.30;1.50;;;1.70;99.90;;;;;;4915265;29;20063;-77
2022/04/02 07:35:37;;;;;;;3.88;1.50;;;1.70;99.90;;;;;;4931105;29;20133;-78
2022/04/02 07:38:19;;;;;;;4.38;1.63;;;1.70;99.90;;;;;;4915745;29;20055;-78
2022/04/02 07:40:54;;;;;;;4.22;1.95;;;1.80;99.90;;;;;;4931866;29;20522;-78
2022/04/02 07:43:39;;;;;;;3.50;1.55;;;1.90;99.90;;;;;;4914957;29;20075;-78
2022/04/02 07:46:10;;;;;;;4.85;1.73;;;1.90;99.90;;;;;;4931339;29;20432;-78
2022/04/02 07:48:39;;;;;;;4.85;1.60;;;2.00;99.90;;;;;;4931555;29;20504;-78
2022/04/02 07:51:11;;;;;;;9.85;2.22;;;2.10;99.90;;;;;;4930758;29;20052;-78
2022/04/02 07:53:44;;;;;;;4.50;1.58;;;2.30;99.90;;;;;;4931991;29;20131;-78
2022/04/02 07:56:18;;;;;;;4.65;1.67;;;2.40;99.90;;;;;;4915752;29;20047;-78
2022/04/02 07:58:50;;;;;;;3.20;1.35;;;2.50;99.90;;;;;;4930488;29;20044;-78
2022/04/02 08:01:18;;;;;;;6.53;1.67;;;2.60;99.90;;;;;;4930965;29;20130;-78
2022/04/02 08:03:46;;;;;;;3.22;1.23;;;2.70;99.90;;;;;;4931345;29;20103;-78
2022/04/02 08:06:14;;;;;;;6.68;1.83;;;2.80;99.90;;;;;;4930534;29;20118;-78
2022/04/02 08:08:40;;;;;;;5.60;1.38;;;2.90;99.90;;;;;;4931596;29;20056;-79
2022/04/02 08:11:09;;;;;;;3.55;1.60;;;3.40;99.90;;;;;;4931279;29;20062;-78
2022/04/02 08:13:37;;;;;;;3.95;1.40;;;3.10;99.90;;;;;;4931489;29;20131;-78
2022/04/02 08:16:04;;;;;;;3.90;1.42;;;3.50;99.90;;;;;;4929809;29;20067;-78
2022/04/02 08:18:30;;;;;;;5.57;1.40;;;3.20;99.90;;;;;;4914913;29;20059;-78
2022/04/02 08:20:56;;;;;;;6.88;1.40;;;3.20;99.90;;;;;;4932307;29;20488;-78
2022/04/02 08:23:23;;;;;;;5.25;1.23;;;4.20;99.90;;;;;;4915055;29;20051;-77
2022/04/02 08:26:30;;;;;;;5.80;1.50;;;3.30;99.90;;;;;;4931823;29;20052;-78
2022/04/02 08:29:03;;;;;;;3.80;1.30;;;3.40;99.90;;;;;;4914829;29;20629;-78
2022/04/02 08:31:47;;;;;;;;;;;3.70;99.90;;;;;;4915689;29;20058;-78
2022/04/02 08:34:34;;;;;;;6.68;1.52;;;3.80;99.90;;;;;;4913704;29;20414;-78
2022/04/02 08:37:13;;;;;;;7.00;1.17;;;3.90;99.90;;;;;;4914942;29;20055;-78
2022/04/02 08:39:59;;;;;;;7.55;1.42;;;4.20;99.90;;;;;;4930299;29;20368;-78
2022/04/02 08:42:32;;;;;;;4.45;1.48;;;4.10;99.90;;;;;;4931106;29;20646;-78
2022/04/02 08:45:09;;;;;;;4.45;1.48;;;4.20;99.90;;;;;;4945440;28;20530;-78
2022/04/02 08:47:47;;;;;;;5.70;1.30;;;4.40;99.90;;;;;;4929886;29;20492;-78
2022/04/02 08:50:14;;;;;;;5.32;1.60;;;4.40;99.90;;;;;;4945501;29;20043;-78
2022/04/02 08:52:53;;;;;;;7.25;1.40;;;5.20;99.90;;;;;;4932389;29;20054;-78
2022/04/02 08:55:23;;;;;;;5.28;1.30;;;4.60;99.90;;;;;;4929114;29;20058;-78
2022/04/02 08:57:52;;;;;;;4.70;1.00;;;4.80;99.90;;;;;;4930924;29;20043;-78
2022/04/02 09:00:23;;;;;;;3.97;1.33;;;5.00;99.90;;;;;;4944687;29;20054;-78
2022/04/02 09:03:10;;;;;;;3.00;1.02;;;5.20;99.90;;;;;;4930510;29;20070;-78
2022/04/02 09:06:07;;;;;;;3.97;1.83;;;5.10;99.90;;;;;;4914274;29;20044;-78
2022/04/02 09:08:49;;;;;;;7.05;1.30;;;5.10;99.90;;;;;;4929852;29;20083;-78
2022/04/02 09:11:25;;;;;;;5.90;1.38;;;5.00;99.90;;;;;;4945871;29;20061;-78
2022/04/02 09:14:20;;;;;;;6.07;1.17;;;5.10;99.90;;;;;;4929314;29;20098;-78
2022/04/02 09:17:01;;;;;;;5.72;1.15;;;5.30;99.90;;;;;;4898344;29;20131;-79
2022/04/02 09:19:50;;;;;;;4.80;1.20;;;5.40;99.90;;;;;;4913804;29;20062;-79
2022/04/02 09:22:38;;;;;;;4.80;1.10;;;5.50;99.90;;;;;;4913315;29;20048;-78
2022/04/02 09:25:37;;;;;;;8.20;1.60;;;5.90;99.90;;;;;;4898097;29;20515;-77
2022/04/02 09:28:09;;;;;;;5.95;1.88;;;5.40;99.90;;;;;;4913619;29;20499;-77
2022/04/02 09:31:14;;;;;;;2.67;0.93;;;5.10;99.90;;;;;;4913222;29;20058;-77
2022/04/02 09:33:43;;;;;;;5.25;1.15;;;5.00;99.90;;;;;;4914337;29;20562;-77
2022/04/02 09:36:23;;;;;;;5.68;1.17;;;4.90;99.90;;;;;;4913044;29;20055;-77
2022/04/02 09:38:59;;;;;;;5.82;1.02;;;5.00;99.90;;;;;;4913813;29;20095;-77
2022/04/02 09:41:38;;;;;;;7.30;1.63;;;5.10;99.90;;;;;;4914365;29;20052;-77
2022/04/02 09:44:29;;;;;;;6.28;1.40;;;5.40;99.90;;;;;;4927991;29;20054;-77
2022/04/02 09:47:18;;;;;;;4.85;1.10;;;5.50;99.90;;;;;;4929511;29;20083;-78
2022/04/02 09:49:53;;;;;;;7.78;1.45;;;5.50;99.90;;;;;;4912701;29;20054;-78
2022/04/02 09:52:22;;;;;;;3.40;1.08;;;5.40;99.90;;;;;;4929198;29;20440;-78
2022/04/02 09:55:00;;;;;;;4.93;1.40;;;5.30;99.90;;;;;;4929889;29;20253;-78
2022/04/02 09:57:46;;;;;;;6.15;1.50;;;5.10;99.90;;;;;;4912610;29;20102;-78
2022/04/02 10:00:16;;;;;;;5.60;1.50;;;5.00;99.90;;;;;;4912890;29;20488;-78
2022/04/02 10:03:08;;;;;;;4.38;1.20;;;5.00;99.90;;;;;;4913538;29;20048;-78
2022/04/02 10:06:03;;;;;;;3.78;1.20;;;4.90;99.90;;;;;;4912870;29;20055;-77
2022/04/02 10:08:58;;;;;;;8.70;1.23;;;4.90;99.90;;;;;;4929233;29;20051;-78
2022/04/02 10:11:27;;;;;;;8.43;1.30;;;5.00;99.90;;;;;;4912369;29;20058;-77
2022/04/02 10:13:57;;;;;;;3.80;1.10;;;5.10;99.90;;;;;;4913560;29;20499;-77
2022/04/02 10:16:25;;;;;;;4.88;1.45;;;5.10;99.90;;;;;;4913517;29;20060;-77
2022/04/02 10:18:56;;;;;;;6.30;1.23;;;5.10;99.90;;;;;;4928951;29;20052;-77
2022/04/02 10:21:22;;;;;;;5.57;1.35;;;5.10;99.90;;;;;;4929354;29;20134;-78
2022/04/02 10:23:54;;;;;;;5.65;1.20;;;5.20;99.90;;;;;;4945710;29;20047;-77
2022/04/02 10:26:21;;;;;;;9.88;1.17;;;5.30;99.90;;;;;;4912958;29;20083;-78
2022/04/02 10:28:54;;;;;;;2.78;1.20;;;5.70;99.90;;;;;;4928749;29;20515;-78
2022/04/02 10:31:24;;;;;;;6.30;1.08;;;5.30;99.90;;;;;;4929162;29;20078;-78
2022/04/02 10:33:55;;;;;;;8.23;1.55;;;5.40;99.90;;;;;;4912120;29;20098;-77
2022/04/02 10:36:22;;;;;;;6.78;1.48;;;5.40;99.90;;;;;;4928746;29;20047;-77
2022/04/02 10:38:51;;;;;;;9.07;1.33;;;5.50;99.90;;;;;;4927863;29;20060;-77
2022/04/02 10:41:17;;;;;;;3.60;1.30;;;5.50;99.90;;;;;;4944860;29;20047;-77
2022/04/02 10:43:58;;;;;;;10.27;1.60;;;5.50;99.90;;;;;;4897120;29;20559;-77
2022/04/02 10:46:25;;;;;;;6.43;1.20;;;5.50;99.90;;;;;;4911913;29;20512;-77
2022/04/02 10:48:57;;;;;;;6.53;1.15;;;5.70;99.90;;;;;;4945173;29;20059;-77
2022/04/02 10:51:25;;;;;;;4.80;1.67;;;5.50;99.90;;;;;;4943908;29;20043;-77
2022/04/02 10:54:07;;;;;;;6.55;1.75;;;6.20;99.90;;;;;;4912645;29;20385;-77
2022/04/02 10:56:47;;;;;;;5.93;1.42;;;5.80;99.90;;;;;;4913553;29;20484;-77
2022/04/02 10:59:15;;;;;;;5.40;1.20;;;6.00;99.90;;;;;;4927636;29;20093;-77
2022/04/02 11:01:44;;;;;;;3.70;1.23;;;6.30;99.90;;;;;;4944073;29;20516;-77
2022/04/02 11:04:42;;;;;;;2.92;1.10;;;6.70;99.90;;;;;;4928515;29;20054;-78
2022/04/02 11:07:08;;;;;;;3.47;1.00;;;7.10;99.90;;;;;;4911832;29;20052;-77
2022/04/02 11:09:36;;;;;;;5.15;1.17;;;7.40;99.90;;;;;;4916849;29;20042;-77
2022/04/02 11:12:05;;;;;;;3.58;0.98;;;7.90;99.90;;;;;;4947887;29;20079;-78
2022/04/02 11:14:40;;;;;;;5.82;1.35;;;7.40;99.90;;;;;;4930693;29;20144;-78
2022/04/02 11:17:07;;;;;;;5.50;1.23;;;7.30;99.90;;;;;;4916034;29;20056;-77
2022/04/02 11:22:36;;;;;;;4.60;1.70;;;7.20;99.90;;;;;;4915428;29;20059;-77
2022/04/02 11:25:06;;;;;;;4.45;1.08;;;7.10;99.90;;;;;;4916004;29;20510;-77
2022/04/02 11:27:37;;;;;;;6.53;1.42;;;7.00;99.90;;;;;;4916296;29;20048;-77
2022/04/02 11:30:08;;;;;;;5.10;1.50;;;6.80;99.90;;;;;;4929776;29;20054;-77
2022/04/02 11:32:39;;;;;;;4.38;1.10;;;6.70;99.90;;;;;;4916536;29;20492;-77
2022/04/02 11:35:07;;;;;;;4.70;1.23;;;6.60;99.90;;;;;;4930662;29;20043;-78
2022/04/02 11:37:45;;;;;;;4.20;1.55;;;6.50;99.90;;;;;;4948371;29;20109;-78
2022/04/02 11:40:14;;;;;;;3.88;1.20;;;6.40;99.90;;;;;;4915510;29;20051;-78
2022/04/02 11:42:46;;;;;;;3.03;1.13;;;6.30;99.90;;;;;;4947310;29;20485;-78
2022/04/02 11:45:18;;;;;;;4.32;1.20;;;6.20;99.90;;;;;;4914665;29;20481;-78
2022/04/02 11:47:50;;;;;;;6.23;1.40;;;6.10;99.90;;;;;;4916178;29;20051;-78
2022/04/02 11:50:26;;;;;;;3.58;1.40;;;6.10;99.90;;;;;;4931647;29;20039;-78
2022/04/02 11:52:57;;;;;;;4.45;1.30;;;6.20;99.90;;;;;;4947823;29;20047;-78
2022/04/02 11:55:24;;;;;;;8.98;1.35;;;6.70;99.90;;;;;;4915583;29;20066;-78
2022/04/02 11:58:05;;;;;;;4.97;1.35;;;6.50;99.90;;;;;;4915850;29;20224;-78
2022/04/02 12:00:34;;;;;;;5.15;1.30;;;6.40;99.90;;;;;;4915142;29;20047;-78
2022/04/02 12:03:00;;;;;;;3.72;1.10;;;6.70;99.90;;;;;;4914700;29;20500;-78
2022/04/02 12:05:36;;;;;;;8.32;1.30;;;6.60;99.90;;;;;;4915147;29;20103;-78
2022/04/02 12:08:02;;;;;;;2.75;1.00;;;7.10;99.90;;;;;;4915745;29;20074;-78
2022/04/02 12:10:30;;;;;;;2.78;1.10;;;6.70;99.90;;;;;;4914702;29;20066;-78
2022/04/02 12:12:58;;;;;;;5.07;1.45;;;6.80;99.90;;;;;;4915333;29;20464;-78
2022/04/02 12:15:24;;;;;;;3.45;1.17;;;7.00;99.90;;;;;;4931417;29;20067;-78
2022/04/02 12:17:53;;;;;;;6.47;1.52;;;7.10;99.90;;;;;;4946217;28;20047;-77
2022/04/02 12:20:25;;;;;;;6.10;1.20;;;7.40;99.90;;;;;;4929779;29;20060;-78
2022/04/02 12:23:12;;;;;;;5.30;1.42;;;7.00;99.90;;;;;;4931050;29;20488;-78
2022/04/02 12:25:40;;;;;;;2.92;1.20;;;6.70;99.90;;;;;;4930145;29;20134;-78
2022/04/02 12:28:12;;;;;;;4.10;0.95;;;6.70;99.90;;;;;;4914792;29;20070;-78
2022/04/02 12:30:41;;;;;;;3.53;1.00;;;6.70;99.30;;;;;;4946393;29;20134;-78
2022/04/02 12:33:08;;;;;;;2.72;0.88;;;7.40;96.80;;;;;;4913785;29;20044;-77
2022/04/02 12:35:35;;;;;;;3.78;1.33;;;6.70;95.90;;;;;;4914899;29;20047;-78
2022/04/02 12:38:03;;;;;;;4.68;1.33;;;6.90;98.30;;;;;;4930536;29;20110;-78
2022/04/02 12:40:32;;;;;;;4.15;1.13;;;7.00;96.90;;;;;;4930540;29;20039;-77
2022/04/02 12:43:05;;;;;;;3.88;1.13;;;7.00;95.70;;;;;;4946532;29;20139;-77
2022/04/02 12:45:31;;;;;;;;;;;7.10;95.30;;;;;;4945612;29;20047;-77
2022/04/02 12:48:08;;;;;;;5.20;1.30;;;7.20;92.80;;;;;;4899011;29;20299;-77
2022/04/02 12:50:37;;;;;;;5.45;1.17;;;7.20;94.60;;;;;;4930653;29;20087;-78
2022/04/02 12:53:04;;;;;;;6.13;1.00;;;7.10;91.70;;;;;;4914169;29;20055;-77
2022/04/02 12:55:32;;;;;;;6.18;1.60;;;6.80;90.40;;;;;;4946168;29;20054;-77
2022/04/02 12:58:02;;;;;;;2.08;1.10;;;6.50;88.70;;;;;;4930475;29;20476;-78
2022/04/02 13:00:30;;;;;;;6.80;1.10;;;6.30;90.10;;;;;;4897150;29;20798;-78
2022/04/02 13:02:58;;;;;;;6.68;1.10;;;7.00;91.80;;;;;;4914675;29;20052;-78
2022/04/02 13:05:26;;;;;;;6.28;1.25;;;6.60;92.50;;;;;;4933698;29;20399;-78
2022/04/02 13:08:03;;;;;;;3.30;0.88;;;6.80;91.10;;;;;;4916405;29;20487;-78
2022/04/02 13:10:30;;;;;;;4.65;0.90;;;6.80;83.60;;;;;;4915776;29;20051;-78
2022/04/02 13:13:03;;;;;;;3.47;0.95;;;6.60;81.50;;;;;;4932986;29;20165;-79